Time;durP1;ratioP1;P1;durP2;ratioP2;P2;SDS_P1;SDS_P2;PMS_P1;PMS_P2;Temp;Humidity;BMP_temperature;BMP_pressure;BME280_temperature;BME280_humidity;BME280_pressure;Samples;Min_cycle;Max_cycle;Signal;HPM_P1;HPM_P2
2022/05/01 00:00:26;;;;;;;17.07;9.40;;;;;;;-145.69;100.00;72493.00;5053329;28;20294;-76
2022/05/01 00:02:55;;;;;;;17.10;9.03;;;;;;;-145.69;100.00;72489.00;5053091;28;20235;-76
2022/05/01 00:05:21;;;;;;;20.53;11.23;;;;;;;-145.69;100.00;72491.00;5048429;28;20279;-76
2022/05/01 00:07:48;;;;;;;15.57;9.17;;;;;;;-145.69;100.00;72481.03;5033171;28;20192;-76
2022/05/01 00:10:14;;;;;;;18.03;10.17;;;;;;;-145.69;100.00;72481.03;5033221;28;20713;-76
2022/05/01 00:12:41;;;;;;;17.60;9.10;;;;;;;-145.69;100.00;72487.00;5033114;28;20204;-76
2022/05/01 00:15:09;;;;;;;15.40;9.03;;;;;;;-145.69;100.00;72491.00;5033083;28;20331;-76
2022/05/01 00:17:35;;;;;;;16.17;8.77;;;;;;;-145.69;100.00;72481.03;5033014;28;20669;-76
2022/05/01 00:20:04;;;;;;;20.83;9.90;;;;;;;-145.69;100.00;72485.03;5033150;28;20196;-76
2022/05/01 00:22:30;;;;;;;16.70;9.33;;;;;;;-145.69;100.00;72477.06;5032973;28;20254;-76
2022/05/01 00:24:57;;;;;;;17.07;10.13;;;;;;;-145.69;100.00;72489.00;5032539;28;20204;-76
2022/05/01 00:27:23;;;;;;;14.60;8.70;;;;;;;-145.69;100.00;72500.94;5033128;28;20598;-75
2022/05/01 00:29:50;;;;;;;17.10;9.10;;;;;;;-145.69;100.00;72506.91;5032944;28;20200;-76
2022/05/01 00:32:16;;;;;;;19.77;10.40;;;;;;;-145.69;100.00;72522.84;5032775;28;20540;-76
2022/05/01 00:37:28;;;;;;;18.37;10.17;;;;;;;-145.69;100.00;72520.84;5032959;28;20289;-75
2022/05/01 00:39:55;;;;;;;17.93;10.57;;;;;;;-145.69;100.00;72528.81;5032869;28;20200;-75
2022/05/01 00:42:22;;;;;;;18.23;9.97;;;;;;;-145.69;100.00;72528.81;5032719;28;20207;-76
2022/05/01 00:44:49;;;;;;;16.70;9.30;;;;;;;-145.69;100.00;72528.81;5032784;28;20562;-76
2022/05/01 00:47:16;;;;;;;22.00;10.97;;;;;;;-145.69;100.00;72532.78;5033100;28;20200;-76
2022/05/01 00:49:42;;;;;;;19.77;10.67;;;;;;;-145.69;100.00;72534.78;5032939;28;20246;-76
2022/05/01 00:52:11;;;;;;;20.07;10.67;;;;;;;-145.69;100.00;72534.78;5032793;28;20250;-76
2022/05/01 00:54:42;;;;;;;17.70;10.73;;;;;;;-145.69;100.00;72544.75;5032722;28;20290;-76
2022/05/01 00:57:10;;;;;;;18.17;9.77;;;;;;;-145.69;100.00;72550.72;5032247;28;20204;-76
2022/05/01 00:59:38;;;;;;;18.43;10.30;;;;;;;-145.69;100.00;72550.72;5032703;28;20727;-76
2022/05/01 01:02:06;;;;;;;18.93;10.27;;;;;;;-145.69;100.00;72546.72;5032638;28;20224;-76
2022/05/01 01:04:32;;;;;;;18.77;10.33;;;;;;;-145.69;100.00;72544.75;5032640;28;20208;-76
2022/05/01 01:06:59;;;;;;;24.37;12.40;;;;;;;-145.69;100.00;72536.78;5032577;28;20247;-75
2022/05/01 01:09:25;;;;;;;20.27;11.43;;;;;;;-145.69;100.00;72540.75;5032646;28;20204;-76
2022/05/01 01:14:33;;;;;;;17.00;9.83;;;;;;;-145.69;100.00;72530.81;5031474;28;20629;-76
2022/05/01 01:17:00;;;;;;;19.30;9.90;;;;;;;-145.69;100.00;72536.78;5032454;28;20203;-76
2022/05/01 01:19:26;;;;;;;20.97;10.83;;;;;;;-145.69;100.00;72532.78;5032563;28;20246;-75
2022/05/01 01:21:55;;;;;;;22.87;12.30;;;;;;;-145.69;100.00;72530.81;5032027;28;20716;-76
2022/05/01 01:24:21;;;;;;;25.60;12.73;;;;;;;-145.69;100.00;72530.81;5032350;28;20204;-76
2022/05/01 01:26:48;;;;;;;23.33;11.93;;;;;;;-145.69;100.00;72528.81;5045251;28;20657;-76
2022/05/01 01:32:00;;;;;;;23.17;11.80;;;;;;;-145.69;100.00;72524.84;5052354;28;20703;-75
2022/05/01 01:34:32;;;;;;;22.43;12.20;;;;;;;-145.69;100.00;72520.84;5052054;28;20746;-76
2022/05/01 01:37:01;;;;;;;21.00;11.57;;;;;;;-145.69;100.00;72522.84;5055917;28;20204;-76
2022/05/01 01:39:28;;;;;;;18.20;10.57;;;;;;;-145.69;100.00;72526.81;5056160;28;20580;-75
2022/05/01 01:41:57;;;;;;;18.27;10.43;;;;;;;-145.69;100.00;72520.84;5055951;28;20199;-76
2022/05/01 01:44:25;;;;;;;16.97;9.83;;;;;;;-145.69;100.00;72512.91;5055837;28;20654;-76
2022/05/01 01:46:52;;;;;;;20.73;10.50;;;;;;;-145.69;100.00;72512.91;5055110;28;20608;-76
2022/05/01 01:49:18;;;;;;;22.40;11.17;;;;;;;-145.69;100.00;72514.88;5055823;28;20605;-76
2022/05/01 01:51:45;;;;;;;20.27;11.50;;;;;;;-145.69;100.00;72508.91;5055722;28;20297;-76
2022/05/01 01:54:13;;;;;;;21.03;11.33;;;;;;;-145.69;100.00;72502.94;5055755;28;20203;-76
2022/05/01 01:56:39;;;;;;;23.27;12.50;;;;;;;-145.69;100.00;72502.94;5045124;28;20814;-75
2022/05/01 01:59:06;;;;;;;21.50;12.47;;;;;;;-145.69;100.00;72502.94;5035440;28;20683;-76
2022/05/01 02:01:33;;;;;;;23.77;12.33;;;;;;;-145.69;100.00;72508.91;5035470;28;20235;-76
2022/05/01 02:03:59;;;;;;;23.70;13.10;;;;;;;-145.69;100.00;72504.94;5035549;28;20627;-75
2022/05/01 02:06:26;;;;;;;22.93;12.40;;;;;;;-145.69;100.00;72504.94;5035745;28;20216;-76
2022/05/01 02:08:52;;;;;;;23.63;12.97;;;;;;;-145.69;100.00;72498.97;5035617;28;20258;-76
2022/05/01 02:11:20;;;;;;;23.17;13.10;;;;;;;-145.69;100.00;72504.94;5035687;28;20200;-76
2022/05/01 02:13:46;;;;;;;27.10;12.00;;;;;;;-145.69;100.00;72512.91;5035476;28;20250;-76
2022/05/01 02:16:13;;;;;;;20.80;11.40;;;;;;;-145.69;100.00;72512.91;5035109;28;20235;-76
2022/05/01 02:18:39;;;;;;;25.50;13.07;;;;;;;-145.69;100.00;72524.84;5035409;28;20204;-76
2022/05/01 02:23:49;;;;;;;26.47;12.47;;;;;;;-145.69;100.00;72546.72;5035390;28;20559;-76
2022/05/01 02:26:16;;;;;;;22.77;12.83;;;;;;;-145.69;100.00;72552.69;5043051;28;20234;-76
2022/05/01 02:28:44;;;;;;;24.33;13.03;;;;;;;-145.69;100.00;72554.69;5035003;28;20199;-76
2022/05/01 02:31:11;;;;;;;29.30;14.43;;;;;;;-145.69;100.00;72568.63;5035233;28;20200;-76
2022/05/01 02:33:38;;;;;;;26.93;13.70;;;;;;;-145.69;100.00;72556.69;5035148;28;20204;-76
2022/05/01 02:36:07;;;;;;;24.27;12.90;;;;;;;-145.69;100.00;72560.66;5034901;28;20318;-76
2022/05/01 02:38:34;;;;;;;21.77;11.70;;;;;;;-145.69;100.00;72564.66;5035024;28;20196;-76
2022/05/01 02:41:01;;;;;;;23.47;12.03;;;;;;;-145.69;100.00;72572.59;5034924;28;20283;-76
2022/05/01 02:43:27;;;;;;;22.97;10.80;;;;;;;-145.69;100.00;72588.53;5034754;28;20299;-76
2022/05/01 02:45:55;;;;;;;23.87;12.07;;;;;;;-145.69;100.00;72600.47;5035147;28;20234;-76
2022/05/01 02:48:21;;;;;;;24.67;12.37;;;;;;;-145.69;100.00;72614.41;5034289;28;20204;-76
2022/05/01 02:50:48;;;;;;;20.60;11.57;;;;;;;-145.69;100.00;72630.31;5034807;28;20262;-76
2022/05/01 02:53:14;;;;;;;23.17;11.20;;;;;;;-145.69;100.00;72648.25;5034753;28;20200;-76
2022/05/01 02:55:40;;;;;;;21.07;11.20;;;;;;;-145.69;100.00;72674.13;5034921;28;20220;-76
2022/05/01 02:58:07;;;;;;;22.93;10.80;;;;;;;-145.69;100.00;72694.03;5034423;28;20605;-76
2022/05/01 03:00:33;;;;;;;23.70;11.70;;;;;;;-145.69;100.00;72692.03;5034762;28;20204;-76
2022/05/01 03:03:01;;;;;;;26.47;13.07;;;;;;;-145.69;100.00;72707.97;5037422;28;20232;-76
2022/05/01 03:05:27;;;;;;;25.50;13.03;;;;;;;-145.69;100.00;72717.91;5034516;28;20597;-76
2022/05/01 03:07:55;;;;;;;25.73;12.60;;;;;;;-145.69;100.00;72731.84;5034616;28;20200;-76
2022/05/01 03:10:22;;;;;;;26.93;12.60;;;;;;;-145.69;100.00;72751.75;5034395;28;20196;-76
2022/05/01 03:12:48;;;;;;;26.53;12.57;;;;;;;-145.69;100.00;72759.72;5034543;28;20208;-77
2022/05/01 03:15:15;;;;;;;23.80;12.40;;;;;;;-145.69;100.00;72777.63;5034259;28;20763;-76
2022/05/01 03:23:11;;;;;;;31.30;13.67;;;;;;;-145.69;100.00;72763.69;5034289;28;20256;-76
2022/05/01 03:25:38;;;;;;;41.03;16.83;;;;;;;-145.69;100.00;72747.78;5034276;28;20206;-76
2022/05/01 03:28:05;;;;;;;57.55;24.65;;;;;;;-145.69;100.00;72731.84;5033131;28;20444;-76
2022/05/01 03:30:32;;;;;;;50.57;20.07;;;;;;;-145.69;100.00;72733.84;5034037;28;20204;-76
2022/05/01 03:32:58;;;;;;;47.63;18.77;;;;;;;-145.69;100.00;72751.75;5052281;28;20191;-76
2022/05/01 03:35:24;;;;;;;45.27;17.60;;;;;;;-145.69;100.00;72765.69;5051941;28;20215;-76
2022/05/01 03:37:52;;;;;;;38.80;15.90;;;;;;;-145.69;100.00;72799.53;5053924;28;20230;-76
2022/05/01 03:40:19;;;;;;;40.97;14.93;;;;;;;-145.69;100.00;72809.47;5053777;28;20250;-76
2022/05/01 03:42:45;;;;;;;37.00;14.33;;;;;;;-145.69;100.00;72823.41;5053680;28;20664;-76
2022/05/01 03:45:13;;;;;;;38.17;16.80;;;;;;;-145.69;100.00;72819.44;5053604;28;20223;-76
2022/05/01 03:47:40;;;;;;;34.80;14.83;;;;;;;-145.69;100.00;72835.34;5053006;28;20199;-76
2022/05/01 03:50:07;;;;;;;51.50;17.37;;;;;;;-145.69;100.00;72831.38;5053439;28;20226;-76
2022/05/01 03:52:34;;;;;;;54.90;18.23;;;;;;;-145.69;100.00;72819.44;5053633;28;20256;-76
2022/05/01 03:55:02;;;;;;;52.23;19.80;;;;;;;-145.69;100.00;72823.41;5053204;28;20341;-76
2022/05/01 03:57:28;;;;;;;46.33;18.57;;;;;;;-145.69;100.00;72831.38;5053279;28;20673;-76
2022/05/01 03:59:54;;;;;;;48.10;17.07;;;;;;;-145.69;100.00;72845.31;5052529;28;20246;-75
2022/05/01 04:02:21;;;;;;;35.27;15.30;;;;;;;-145.69;100.00;72871.19;5039647;28;20223;-76
2022/05/01 04:04:48;;;;;;;35.47;14.70;;;;;;;-145.69;100.00;72887.09;5033578;28;20645;-75
2022/05/01 04:07:14;;;;;;;31.53;13.60;;;;;;;-145.69;100.00;72893.09;5033553;28;20231;-76
2022/05/01 04:09:41;;;;;;;35.17;15.43;;;;;;;-145.69;100.00;72899.06;5033233;28;20654;-76
2022/05/01 04:12:09;;;;;;;49.60;17.37;;;;;;;-145.69;100.00;72881.13;5033277;28;20200;-75
2022/05/01 04:14:36;;;;;;;51.80;18.57;;;;;;;-145.69;100.00;72849.28;5033205;28;20263;-75
2022/05/01 04:17:03;;;;;;;55.43;19.13;;;;;;;-145.69;100.00;72851.28;5032979;28;20231;-75
2022/05/01 04:19:30;;;;;;;50.70;17.67;;;;;;;-145.69;100.00;72855.25;5033011;28;20200;-76
2022/05/01 04:21:56;;;;;;;52.40;19.17;;;;;;;-145.69;100.00;72853.28;5033316;28;20231;-76
2022/05/01 04:24:23;;;;;;;65.00;20.00;;;;;;;-145.69;100.00;72827.38;5033405;28;20204;-76
2022/05/01 04:26:50;;;;;;;67.67;22.37;;;;;;;-145.69;100.00;72809.47;5033113;28;20203;-76
2022/05/01 04:32:01;;;;;;;61.53;18.63;;;;;;;-145.69;100.00;72815.44;5043281;28;20210;-76
2022/05/01 04:34:28;;;;;;;47.07;17.43;;;;;;;-145.69;100.00;72831.38;5052904;28;20600;-76
2022/05/01 04:36:54;;;;;;;44.93;17.10;;;;;;;-145.69;100.00;72827.38;5052801;28;20227;-76
2022/05/01 04:39:21;;;;;;;46.83;17.60;;;;;;;-145.69;100.00;72833.38;5052874;28;20257;-76
2022/05/01 04:41:47;;;;;;;41.40;16.40;;;;;;;-145.69;100.00;72809.47;5052836;28;20257;-76
2022/05/01 04:44:13;;;;;;;49.00;17.43;;;;;;;-145.69;100.00;72801.50;5052520;28;20260;-76
2022/05/01 04:46:41;;;;;;;46.97;17.80;;;;;;;-145.69;100.00;72783.59;5052907;28;20200;-76
2022/05/01 04:49:08;;;;;;;55.80;19.57;;;;;;;-145.69;100.00;72777.63;5052712;28;20661;-75
2022/05/01 04:51:34;;;;;;;50.77;17.53;;;;;;;-145.69;100.00;72747.78;5052667;28;20199;-75
2022/05/01 04:54:00;;;;;;;44.20;17.27;;;;;;;-145.69;100.00;72731.84;5052713;28;20203;-75
2022/05/01 04:59:11;;;;;;;51.07;19.20;;;;;;;-145.69;100.00;72678.09;5052762;28;20202;-76
2022/05/01 05:01:37;;;;;;;51.70;17.80;;;;;;;-145.69;100.00;72670.13;5045575;28;20289;-76
2022/05/01 05:04:05;;;;;;;47.60;17.77;;;;;;;-145.69;100.00;72664.16;5032558;28;20566;-76
2022/05/01 05:06:32;;;;;;;39.17;15.57;;;;;;;-145.69;100.00;72660.19;5032685;28;20204;-76
2022/05/01 05:11:42;;;;;;;32.90;14.63;;;;;;;-145.69;100.00;72652.22;5035839;28;20311;-76
2022/05/01 05:14:09;;;;;;;30.97;12.97;;;;;;;-145.69;100.00;72634.31;5036402;28;20204;-76
2022/05/01 05:16:35;;;;;;;38.17;15.53;;;;;;;-145.69;100.00;72628.34;5036425;28;20223;-76
2022/05/01 05:19:02;;;;;;;36.63;15.50;;;;;;;-145.69;100.00;72614.41;5036593;28;20200;-76
2022/05/01 05:21:30;;;;;;;33.27;14.73;;;;;;;-145.69;100.00;72604.44;5045044;28;20605;-76
2022/05/01 05:23:56;;;;;;;35.23;15.90;;;;;;;-145.69;100.00;72592.50;5056195;28;20203;-75
2022/05/01 05:26:23;;;;;;;37.47;15.77;;;;;;;-145.69;100.00;72586.53;5056199;28;20612;-76
2022/05/01 05:28:49;;;;;;;31.60;13.90;;;;;;;-145.69;100.00;72562.66;5056225;28;20200;-76
2022/05/01 05:31:16;;;;;;;34.00;15.27;;;;;;;-145.69;100.00;72540.75;5056156;28;20257;-76
2022/05/01 05:33:42;;;;;;;31.93;13.73;;;;;;;-145.69;100.00;72524.84;5056226;28;20483;-76
2022/05/01 05:36:09;;;;;;;29.87;15.10;;;;;;;-145.69;100.00;72526.81;5055855;28;20231;-76
2022/05/01 05:38:37;;;;;;;31.93;14.30;;;;;;;-145.69;100.00;72502.94;5056271;28;20195;-76
2022/05/01 05:41:05;;;;;;;29.53;14.40;;;;;;;-145.69;100.00;72465.13;5055731;28;20218;-76
2022/05/01 05:43:31;;;;;;;33.63;14.53;;;;;;;-145.69;100.00;72471.09;5056051;28;20206;-76
2022/05/01 05:45:58;;;;;;;27.03;13.63;;;;;;;-145.69;100.00;72449.19;5055967;28;20200;-76
2022/05/01 05:48:24;;;;;;;27.10;12.97;;;;;;;-145.69;100.00;72385.50;5055138;28;20277;-76
2022/05/01 05:50:50;;;;;;;29.50;13.00;;;;;;;-145.69;100.00;72337.75;5052271;28;20218;-76
2022/05/01 05:53:17;;;;;;;25.77;13.33;;;;;;;-145.69;100.00;72393.47;5035894;28;20203;-76
2022/05/01 05:55:46;;;;;;;20.90;11.83;;;;;;;-145.69;100.00;72417.34;5035809;28;20196;-76
2022/05/01 05:58:12;;;;;;;20.80;11.87;;;;;;;-145.69;100.00;72427.31;5035810;28;20210;-76
2022/05/01 06:00:39;;;;;;;23.90;11.93;;;;;;;-145.69;100.00;72421.34;5035723;28;20204;-76
2022/05/01 06:03:05;;;;;;;25.43;12.60;;;;;;;-145.69;100.00;72413.38;5035341;28;20709;-76
2022/05/01 06:05:32;;;;;;;24.30;12.17;;;;;;;-145.69;100.00;72407.41;5035423;28;20202;-76
2022/05/01 06:07:58;;;;;;;26.50;12.83;;;;;;;-145.69;100.00;72397.44;5035724;28;20204;-76
2022/05/01 06:10:25;;;;;;;23.50;12.23;;;;;;;-145.69;100.00;72397.44;5035617;28;20204;-76
2022/05/01 06:12:52;;;;;;;23.00;12.13;;;;;;;-145.69;100.00;72341.72;5048192;28;20273;-76
2022/05/01 06:15:20;;;;;;;20.03;11.43;;;;;;;-145.69;100.00;72274.06;5055303;28;20200;-76
2022/05/01 06:17:46;;;;;;;18.27;9.70;;;;;;;-145.69;100.00;72240.22;5055041;28;20693;-77
2022/05/01 06:20:13;;;;;;;18.30;11.20;;;;;;;-145.69;100.00;72240.22;5055449;28;20226;-76
2022/05/01 06:22:39;;;;;;;21.17;11.10;;;;;;;-145.69;100.00;72295.94;5054283;28;20269;-76
2022/05/01 06:25:06;;;;;;;19.87;10.20;;;;;;;-145.69;100.00;72190.47;5055250;28;20207;-76
2022/05/01 06:27:33;;;;;;;15.03;9.07;;;;;;;-145.69;100.00;72174.53;5055198;28;20200;-77
2022/05/01 06:30:01;;;;;;;18.03;9.70;;;;;;;-145.69;100.00;72154.63;5055134;28;20203;-76
2022/05/01 06:32:28;;;;;;;21.03;10.47;;;;;;;-145.69;100.00;72158.63;5054786;28;20230;-77
2022/05/01 06:34:54;;;;;;;18.10;10.07;;;;;;;-145.69;100.00;72194.44;5054937;28;20229;-76
2022/05/01 06:37:21;;;;;;;14.80;8.43;;;;;;;-145.69;100.00;72136.72;5054945;28;20300;-76
2022/05/01 06:39:47;;;;;;;13.97;7.70;;;;;;;-145.69;100.00;72108.84;5054905;28;20199;-76
2022/05/01 06:42:14;;;;;;;16.33;9.43;;;;;;;-145.69;99.99;72090.94;5048491;28;20200;-76
2022/05/01 06:44:41;;;;;;;17.30;9.20;;;;;;;-145.69;100.00;72118.81;5034885;28;20278;-76
2022/05/01 06:47:09;;;;;;;14.60;8.87;;;;;;;-145.69;100.00;72140.69;5034596;28;20250;-76
2022/05/01 06:49:35;;;;;;;18.20;9.70;;;;;;;-145.69;100.00;72172.53;5034648;28;20637;-76
2022/05/01 06:52:01;;;;;;;16.97;8.97;;;;;;;-145.69;100.00;72158.63;5034817;28;20204;-76
2022/05/01 06:54:28;;;;;;;15.33;9.20;;;;;;;-145.69;100.00;72146.69;5034731;28;20345;-75
2022/05/01 06:56:54;;;;;;;14.90;9.10;;;;;;;-145.69;100.00;72150.66;5034611;28;20274;-76
2022/05/01 06:59:21;;;;;;;17.60;9.37;;;;;;;-145.69;100.00;72136.72;5034680;28;20196;-76
2022/05/01 07:01:48;;;;;;;16.20;8.53;;;;;;;-145.69;100.00;72106.88;5034141;28;20290;-76
2022/05/01 07:04:15;;;;;;;15.40;8.50;;;;;;;-145.69;100.00;72114.81;5034556;28;20295;-77
2022/05/01 07:06:43;;;;;;;14.87;9.60;;;;;;;-145.69;100.00;72112.84;5034557;28;20250;-76
2022/05/01 07:09:10;;;;;;;19.47;10.53;;;;;;;-145.69;100.00;72154.63;5034347;28;20215;-76
2022/05/01 07:11:36;;;;;;;18.87;10.77;;;;;;;-145.69;100.00;72200.41;5034537;28;20246;-76
2022/05/01 07:14:02;;;;;;;20.53;10.30;;;;;;;-145.69;100.00;72206.38;5054197;28;20203;-76
2022/05/01 07:16:29;;;;;;;16.80;9.53;;;;;;;-145.69;100.00;72150.66;5053939;28;20854;-76
2022/05/01 07:18:55;;;;;;;21.17;9.83;;;;;;;-145.69;100.00;72182.50;5054204;28;20226;-76
2022/05/01 07:21:23;;;;;;;18.93;9.87;;;;;;;-145.69;100.00;72130.75;5054224;28;20596;-76
2022/05/01 07:23:49;;;;;;;19.37;10.27;;;;;;;-145.69;100.00;72182.50;5053961;28;20554;-76
2022/05/01 07:26:18;;;;;;;17.77;10.03;;;;;;;-145.69;100.00;72194.44;5053956;28;20199;-76
2022/05/01 07:28:44;;;;;;;17.37;9.80;;;;;;;-145.69;100.00;72126.78;5053460;28;20225;-76
2022/05/01 07:31:11;;;;;;;18.00;10.60;;;;;;;-145.69;100.00;72082.97;5053249;28;20439;-77
2022/05/01 07:33:37;;;;;;;17.10;9.97;;;;;;;-145.69;100.00;72082.97;5053733;28;20199;-77
2022/05/01 07:36:04;;;;;;;13.80;8.23;;;;;;;-145.69;100.00;72057.13;5052104;28;20192;-77
2022/05/01 07:38:32;;;;;;;17.20;9.20;;;;;;;-145.69;100.00;72088.97;5053487;28;20248;-78
2022/05/01 07:40:58;;;;;;;16.60;9.47;;;;;;;-145.69;100.00;72136.72;5053609;28;20199;-77
2022/05/01 07:43:25;;;;;;;16.60;9.57;;;;;;;-145.69;100.00;72098.91;5053524;28;20620;-78
2022/05/01 07:45:51;;;;;;;17.80;9.07;;;;;;;-145.69;100.00;72108.84;5053723;28;20249;-77
2022/05/01 07:48:18;;;;;;;18.57;9.50;;;;;;;-145.69;100.00;72094.94;5053567;28;20261;-77
2022/05/01 07:50:44;;;;;;;15.87;9.37;;;;;;;-145.69;100.00;72098.91;5053648;28;20207;-76
2022/05/01 07:53:11;;;;;;;16.83;9.87;;;;;;;-145.69;100.00;72077.00;5053346;28;20546;-76
2022/05/01 07:55:38;;;;;;;17.33;9.53;;;;;;;-145.69;100.00;72142.69;5053473;28;20199;-77
2022/05/01 07:58:05;;;;;;;16.60;9.50;;;;;;;-145.69;100.00;72090.94;5052768;28;20663;-77
2022/05/01 08:00:32;;;;;;;16.73;9.10;;;;;;;-145.69;98.41;72025.28;5051862;28;20196;-77
2022/05/01 08:05:42;;;;;;;15.00;8.23;;;;;;;-145.69;94.18;71925.75;5053339;28;20206;-77
2022/05/01 08:08:09;;;;;;;13.47;8.57;;;;;;;-145.69;93.24;71935.72;5053121;28;20719;-77
2022/05/01 08:10:35;;;;;;;17.17;8.87;;;;;;;-145.69;95.08;71959.59;5053125;28;20234;-77
2022/05/01 08:13:03;;;;;;;18.63;8.63;;;;;;;-145.69;94.15;71967.56;5053333;28;20268;-77
2022/05/01 08:15:30;;;;;;;14.03;8.53;;;;;;;-145.69;100.00;71889.94;5053243;28;20207;-77
2022/05/01 08:21:04;;;;;;;12.93;8.03;;;;;;;-145.69;88.82;71852.13;5053059;28;20227;-77
2022/05/01 08:23:28;;;;;;;14.50;7.57;;;;;;;-145.69;87.48;71864.06;5053052;28;20565;-77
2022/05/01 08:25:54;;;;;;;12.77;7.90;;;;;;;-145.69;85.46;71850.13;5053109;28;20253;-76
2022/05/01 08:28:22;;;;;;;12.05;7.13;;;;;;;-145.69;81.28;71812.31;5053005;28;20212;-77
2022/05/01 08:30:49;;;;;;;14.05;7.78;;;;;;;-145.69;79.56;71828.25;5047125;28;20716;-77
2022/05/01 08:33:15;;;;;;;12.75;7.90;;;;;;;-145.69;81.26;71776.50;5032775;28;20208;-77
2022/05/01 08:35:41;;;;;;;11.98;6.82;;;;;;;-145.69;83.43;71746.66;5033026;28;20204;-77
2022/05/01 08:38:08;;;;;;;13.48;7.60;;;;;;;-145.69;85.49;71784.47;5033026;28;20238;-77
2022/05/01 08:40:34;;;;;;;13.05;7.28;;;;;;;-145.69;80.49;71746.66;5032947;28;20208;-76
2022/05/01 08:43:02;;;;;;;14.95;7.32;;;;;;;-145.69;88.33;71935.72;5032865;28;20658;-76
2022/05/01 08:45:42;;;;;;;11.20;7.27;;;;;;;-145.69;94.76;71965.56;5035704;28;20204;-77
2022/05/01 08:48:16;;;;;;;22.63;7.53;;;;;;;-145.69;90.93;71947.66;5039600;28;20547;-77
2022/05/01 08:50:43;;;;;;;15.13;7.27;;;;;;;-145.69;92.82;71983.47;5039563;28;20266;-77
2022/05/01 08:53:10;;;;;;;11.53;6.93;;;;;;;-145.69;97.97;71993.44;5039438;28;20204;-77
2022/05/01 08:55:39;;;;;;;12.63;8.43;;;;;;;-145.69;95.40;71963.56;5038643;28;20463;-77
2022/05/01 08:58:08;;;;;;;13.87;7.00;;;;;;;-145.69;92.47;71907.84;5039243;28;20621;-77
2022/05/01 09:00:36;;;;;;;12.27;7.53;;;;;;;-145.69;89.56;71887.94;5046970;28;20277;-77
2022/05/01 09:03:05;;;;;;;12.20;6.83;;;;;;;-145.69;88.11;71808.34;5059073;28;20227;-77
2022/05/01 09:05:31;;;;;;;11.80;6.53;;;;;;;-145.69;82.20;71772.53;5059354;28;20195;-77
2022/05/01 09:07:58;;;;;;;11.37;6.50;;;;;;;-145.69;77.25;71762.56;5059307;28;20290;-77
2022/05/01 09:10:26;;;;;;;11.02;6.05;;;;;;;-145.69;78.38;71756.59;5059259;28;20365;-77
2022/05/01 09:12:53;;;;;;;9.52;5.82;;;;;;;-145.69;76.89;71716.81;5059272;28;20329;-78
2022/05/01 09:15:33;;;;;;;9.60;6.10;;;;;;;-145.69;80.05;71804.38;5059475;28;20210;-77
2022/05/01 09:18:02;;;;;;;13.02;6.43;;;;;;;-145.69;80.66;71856.09;5059379;28;20226;-78
2022/05/01 09:20:29;;;;;;;9.70;6.15;;;;;;;-145.69;81.89;71860.09;5059343;28;20207;-76
2022/05/01 09:22:58;;;;;;;12.25;6.50;;;;;;;-145.69;80.17;71866.06;5059123;28;20290;-76
2022/05/01 09:25:27;;;;;;;11.33;6.40;;;;;;;-145.69;76.57;71864.06;5059142;28;20204;-77
2022/05/01 09:27:56;;;;;;;10.10;5.65;;;;;;;-145.69;77.85;71822.28;5059184;28;20207;-77
2022/05/01 09:30:31;;;;;;;9.70;6.17;;;;;;;-145.69;79.56;71931.72;5052899;28;20232;-77
2022/05/01 09:32:58;;;;;;;13.10;7.25;;;;;;;-145.69;82.27;71903.88;5039250;28;20732;-77
2022/05/01 09:35:31;;;;;;;12.93;7.47;;;;;;;-145.69;89.94;71915.81;5039123;28;20261;-77
2022/05/01 09:38:15;;;;;;;12.57;7.97;;;;;;;-145.69;91.46;71931.72;5038903;28;20359;-76
2022/05/01 09:40:42;;;;;;;15.83;8.00;;;;;;;-145.69;91.13;71931.72;5039285;28;20203;-76
2022/05/01 09:43:08;;;;;;;10.73;7.13;;;;;;;-145.69;93.58;72011.34;5039146;28;20258;-77
2022/05/01 09:45:35;;;;;;;12.90;7.73;;;;;;;-145.69;93.60;71951.63;5039122;28;20294;-76
2022/05/01 09:48:01;;;;;;;17.20;7.80;;;;;;;-145.69;92.81;71947.66;5038965;28;20662;-77
2022/05/01 09:50:41;;;;;;;14.73;8.00;;;;;;;-145.69;89.84;71923.78;5038671;28;20205;-76
2022/05/01 09:53:07;;;;;;;11.97;6.90;;;;;;;-145.69;87.16;71927.75;5049893;28;20192;-77
2022/05/01 09:55:34;;;;;;;11.50;7.17;;;;;;;-145.69;88.95;71927.75;5039125;28;20204;-77
2022/05/01 09:58:09;;;;;;;16.70;7.83;;;;;;;-145.69;90.81;71939.69;5036069;28;20267;-77
2022/05/01 10:00:38;;;;;;;16.00;7.43;;;;;;;-145.69;88.07;71913.81;5035125;28;20207;-77
2022/05/01 10:03:23;;;;;;;15.83;7.80;;;;;;;-145.69;90.84;71961.59;5035497;28;20726;-77
2022/05/01 10:05:53;;;;;;;15.20;7.13;;;;;;;-145.69;90.16;71931.72;5036042;28;20204;-77
2022/05/01 10:08:20;;;;;;;14.50;7.77;;;;;;;-145.69;88.09;71907.84;5035796;28;20598;-77
2022/05/01 10:10:49;;;;;;;13.47;7.50;;;;;;;-145.69;88.39;71913.81;5035687;28;20554;-77
2022/05/01 10:13:16;;;;;;;12.07;7.20;;;;;;;-145.69;88.69;71901.88;5035235;28;20200;-77
2022/05/01 10:15:43;;;;;;;11.67;7.30;;;;;;;-145.69;86.21;71899.88;5035510;28;20258;-77
2022/05/01 10:18:11;;;;;;;13.50;7.70;;;;;;;-145.69;88.35;71917.81;5035550;28;20239;-77
2022/05/01 10:20:37;;;;;;;13.70;8.00;;;;;;;-145.69;88.75;71941.69;5035424;28;20246;-76
2022/05/01 10:23:07;;;;;;;13.10;7.53;;;;;;;-145.69;93.09;71874.03;5035477;28;20536;-77
2022/05/01 10:25:37;;;;;;;13.70;7.77;;;;;;;-145.69;88.36;71864.06;5035386;28;20200;-77
2022/05/01 10:28:15;;;;;;;17.47;8.27;;;;;;;-145.69;88.48;71899.88;5035162;28;20262;-77
2022/05/01 10:33:50;;;;;;;14.23;7.87;;;;;;;-145.69;87.00;71830.25;5035382;28;20204;-77
2022/05/01 10:36:35;;;;;;;11.57;7.13;;;;;;;-145.69;83.48;71744.66;5035062;28;20200;-77
2022/05/01 10:39:09;;;;;;;14.95;8.20;;;;;;;-145.69;78.49;71649.16;5035105;28;20278;-79
2022/05/01 10:41:40;;;;;;;13.07;7.88;;;;;;;-145.69;76.16;71675.00;5034860;28;20294;-77
2022/05/01 10:44:07;;;;;;;14.80;8.55;;;;;;;-145.69;80.77;71669.03;5034943;28;20200;-77
2022/05/01 10:46:33;;;;;;;11.77;7.47;;;;;;;-145.69;77.03;71645.16;5034611;28;20223;-77
2022/05/01 10:49:05;;;;;;;11.05;7.18;;;;;;;-145.69;77.02;71675.00;5035084;28;20203;-77
2022/05/01 10:51:42;;;;;;;11.65;6.88;;;;;;;-145.69;78.61;71682.97;5034958;28;20262;-76
2022/05/01 10:54:32;;;;;;;11.63;7.63;;;;;;;-145.69;87.96;71770.53;5034830;28;20262;-77
2022/05/01 10:57:07;;;;;;;14.18;8.00;;;;;;;-145.69;80.70;71734.72;5034608;28;20725;-77
2022/05/01 10:59:34;;;;;;;16.08;8.18;;;;;;;-145.69;83.28;71677.00;5035238;28;20204;-77
2022/05/01 11:02:03;;;;;;;13.23;7.35;;;;;;;-145.69;74.19;71675.00;5054372;28;20701;-77
2022/05/01 11:04:32;;;;;;;12.63;7.78;;;;;;;-145.69;78.18;71633.22;5054434;28;20615;-77
2022/05/01 11:06:59;;;;;;;15.23;8.02;;;;;;;-145.69;82.11;71663.06;5054440;28;20285;-77
2022/05/01 11:09:26;;;;;;;13.50;7.68;;;;;;;-145.69;73.18;71545.66;5053519;28;20203;-77
2022/05/01 11:11:56;;;;;;;14.38;7.38;;;;;;;-145.69;70.57;71474.03;5053876;28;20546;-77
2022/05/01 11:14:33;;;;;;;13.48;7.90;;;;;;;-145.69;80.76;71545.66;5054414;28;20737;-77
2022/05/01 11:16:59;;;;;;;12.55;7.60;;;;;;;-145.69;78.11;71565.56;5054148;28;20653;-77
2022/05/01 11:19:31;;;;;;;13.95;7.80;;;;;;;-145.69;80.54;71593.44;5054059;28;20242;-77
2022/05/01 11:21:58;;;;;;;12.35;7.05;;;;;;;-145.69;74.92;71657.09;5054070;28;20199;-76
2022/05/01 11:24:43;;;;;;;13.27;7.82;;;;;;;-145.69;70.03;71557.59;5053950;28;20207;-76
2022/05/01 11:27:16;;;;;;;11.48;6.72;;;;;;;-145.69;69.17;71460.09;5054025;28;20289;-76
2022/05/01 11:30:22;;;;;;;10.30;6.75;;;;;;;-145.69;65.61;71474.03;5048614;28;20196;-76
2022/05/01 11:32:49;;;;;;;10.93;6.72;;;;;;;-145.69;69.76;71535.72;5034166;28;20292;-76
2022/05/01 11:35:18;;;;;;;10.98;6.20;;;;;;;-145.69;69.02;71517.81;5033830;28;20326;-76